Terminal Aerodrome Forecast
Issued by NWS

Home | Current Version | Previous Version | Text Only | Print | Product List | Glossary On
Versions: 1 2 3 4 5 6 7 8 9 10 11 12 13 14 15 16 17 18 19 20 21 22 23 24
000
FTUS43 KGRR 010900 AAB
TAFLAN
TAF AMD
KLAN 010902Z 0109/0206 18006KT 5SM BR SCT025
      TEMPO 0109/0112 2SM BR BKN010
     FM011800 20014G24KT 3SM -TSRA BR BKN025CB
     FM012200 21012G22KT P6SM SCT050 BKN100
     FM020200 23008KT P6SM VCSH BKN050=

USA.gov is the U.S. government's official web portal to all federal, state and local government web resources and services.